createdAt,value
2018-08-31T00:02:07.904Z,97725.44
2018-08-31T00:04:47.787Z,97722.23
2018-08-31T00:07:32.028Z,97726.34
2018-08-31T00:12:41.494Z,97726.09
2018-08-31T00:15:10.392Z,97717.11
2018-08-31T00:17:40.244Z,97713.83
2018-08-31T00:20:10.166Z,97711.98
2018-08-31T00:22:38.755Z,97705.56
2018-08-31T00:25:19.699Z,97703.45
2018-08-31T00:27:59.387Z,97706.50
2018-08-31T00:30:39.315Z,97708.17
2018-08-31T00:33:19.127Z,97705.95
2018-08-31T00:35:58.530Z,97708.54
2018-08-31T00:40:52.100Z,97706.19
2018-08-31T00:43:43.992Z,97713.89
2018-08-31T00:46:12.579Z,97711.31
2018-08-31T00:48:41.143Z,97708.47
2018-08-31T00:51:09.759Z,97710.12
2018-08-31T00:53:38.330Z,97708.84
2018-08-31T00:56:06.898Z,97706.42
2018-08-31T00:58:35.737Z,97708.99
2018-08-31T01:01:04.833Z,97699.75
2018-08-31T01:03:33.912Z,97699.30
2018-08-31T01:06:03.042Z,97700.84
2018-08-31T01:08:31.607Z,97694.44
2018-08-31T01:11:00.184Z,97692.28
2018-08-31T01:13:28.859Z,97687.53
2018-08-31T01:15:57.430Z,97686.63
2018-08-31T01:18:26.155Z,97690.74
2018-08-31T01:20:54.991Z,97689.27
2018-08-31T01:23:23.579Z,97686.52
2018-08-31T01:25:52.131Z,97684.34
2018-08-31T01:28:20.744Z,97684.59
2018-08-31T01:30:49.371Z,97687.84
2018-08-31T01:33:17.948Z,97694.06
2018-08-31T01:35:46.900Z,97696.33
2018-08-31T01:38:15.448Z,97696.14
2018-08-31T01:40:44.024Z,97698.97
2018-08-31T01:43:12.641Z,97692.37
2018-08-31T01:45:41.683Z,97693.38
2018-08-31T01:48:10.253Z,97694.09
2018-08-31T01:50:42.936Z,97690.48
2018-08-31T01:53:11.488Z,97687.16
2018-08-31T01:55:40.055Z,97676.17
2018-08-31T01:58:08.875Z,97667.47
2018-08-31T02:00:37.443Z,97669.58
2018-08-31T02:03:06.243Z,97666.22
2018-08-31T02:05:35.257Z,97663.09
2018-08-31T02:08:03.814Z,97659.05
2018-08-31T02:10:32.403Z,97662.90
2018-08-31T02:13:01.259Z,97664.75
2018-08-31T02:15:29.809Z,97665.92
2018-08-31T02:17:58.355Z,97659.50
2018-08-31T02:20:27.371Z,97664.07
2018-08-31T02:22:55.934Z,97660.61
2018-08-31T02:25:24.502Z,97656.86
2018-08-31T02:27:53.100Z,97652.19
2018-08-31T02:30:21.832Z,97645.20
2018-08-31T02:32:50.515Z,97638.27
2018-08-31T02:35:19.205Z,97623.45
2018-08-31T02:37:47.767Z,97623.64
2018-08-31T02:40:16.324Z,97624.29
2018-08-31T02:42:44.944Z,97621.73
2018-08-31T02:45:13.504Z,97622.92
2018-08-31T02:47:42.099Z,97609.72
2018-08-31T02:50:10.788Z,97605.16
2018-08-31T02:52:39.487Z,97598.27
2018-08-31T02:55:08.066Z,97607.62
2018-08-31T02:57:36.759Z,97610.38
2018-08-31T03:00:05.379Z,97606.00
2018-08-31T03:02:33.943Z,97602.98
2018-08-31T03:05:02.540Z,97601.36
2018-08-31T03:07:31.104Z,97602.91
2018-08-31T03:09:59.779Z,97600.45
2018-08-31T03:12:28.376Z,97603.28
2018-08-31T03:14:57.071Z,97608.79
2018-08-31T03:17:25.655Z,97617.58
2018-08-31T03:19:54.343Z,97616.83
2018-08-31T03:22:22.935Z,97616.63
2018-08-31T03:24:51.509Z,97613.77
2018-08-31T03:27:20.139Z,97616.14
2018-08-31T03:29:48.695Z,97619.98
2018-08-31T03:32:17.271Z,97622.55
2018-08-31T03:34:46.063Z,97618.81
2018-08-31T03:37:14.712Z,97614.52
2018-08-31T03:39:43.266Z,97613.23
2018-08-31T03:42:11.955Z,97611.02
2018-08-31T03:44:40.532Z,97608.83
2018-08-31T03:47:09.123Z,97610.94
2018-08-31T03:49:37.760Z,97615.80
2018-08-31T03:52:06.439Z,97609.47
2018-08-31T03:54:35.123Z,97602.16
2018-08-31T03:57:03.791Z,97598.57
2018-08-31T03:59:32.419Z,97597.66
2018-08-31T04:02:00.999Z,97604.91
2018-08-31T04:04:29.723Z,97602.16
2018-08-31T04:06:58.283Z,97601.59
2018-08-31T04:09:27.043Z,97604.08
2018-08-31T04:11:55.926Z,97602.88
2018-08-31T04:14:24.484Z,97606.45
2018-08-31T04:16:53.052Z,97603.44
2018-08-31T04:19:21.638Z,97609.20
2018-08-31T04:21:50.228Z,97608.37
2018-08-31T04:24:18.932Z,97603.05
2018-08-31T04:26:47.950Z,97596.91
2018-08-31T04:29:16.515Z,97597.02
2018-08-31T04:31:45.087Z,97610.48
2018-08-31T04:34:14.369Z,97612.14
2018-08-31T04:36:43.592Z,97607.58
2018-08-31T04:39:13.545Z,97607.20
2018-08-31T04:41:43.539Z,97603.25
2018-08-31T04:44:12.108Z,97599.63
2018-08-31T04:46:41.079Z,97600.72
2018-08-31T04:49:09.662Z,97599.17
2018-08-31T04:51:38.211Z,97606.86
2018-08-31T04:54:07.369Z,97604.56
2018-08-31T04:56:35.928Z,97610.14
2018-08-31T04:59:04.516Z,97599.33
2018-08-31T05:01:33.120Z,97598.42
2018-08-31T05:04:01.748Z,97597.89
2018-08-31T05:06:30.335Z,97594.42
2018-08-31T05:08:59.037Z,97600.19
2018-08-31T05:11:27.604Z,97590.92
2018-08-31T05:13:56.160Z,97590.77
2018-08-31T05:16:24.999Z,97590.47
2018-08-31T05:18:53.567Z,97589.64
2018-08-31T05:21:22.143Z,97585.53
2018-08-31T05:23:50.812Z,97580.59
2018-08-31T05:26:19.368Z,97587.45
2018-08-31T05:28:47.976Z,97586.73
2018-08-31T05:31:16.559Z,97588.20
2018-08-31T05:33:46.111Z,97587.10
2018-08-31T05:36:14.677Z,97590.20
2018-08-31T05:38:43.343Z,97593.86
2018-08-31T05:41:11.929Z,97590.58
2018-08-31T05:43:40.482Z,97588.55
2018-08-31T05:46:09.083Z,97592.84
2018-08-31T05:48:37.647Z,97584.24
2018-08-31T05:51:06.569Z,97590.02
2018-08-31T05:53:35.368Z,97586.44
2018-08-31T05:56:03.899Z,97591.56
2018-08-31T05:58:32.451Z,97599.14
2018-08-31T06:01:01.060Z,97599.70
2018-08-31T06:03:29.623Z,97609.95
2018-08-31T06:05:58.187Z,97613.88
2018-08-31T06:08:26.779Z,97611.50
2018-08-31T06:10:55.335Z,97609.20
2018-08-31T06:13:23.955Z,97616.11
2018-08-31T06:15:52.619Z,97612.45
2018-08-31T06:18:21.193Z,97605.09
2018-08-31T06:20:49.770Z,97606.04
2018-08-31T06:23:18.387Z,97603.09
2018-08-31T06:25:46.948Z,97601.63
2018-08-31T06:28:15.495Z,97609.59
2018-08-31T06:30:44.207Z,97606.11
2018-08-31T06:33:12.771Z,97611.54
2018-08-31T06:35:41.330Z,97619.41
2018-08-31T06:38:10.267Z,97621.16
2018-08-31T06:40:38.920Z,97624.44
2018-08-31T06:43:07.448Z,97621.65
2018-08-31T06:45:36.107Z,97624.06
2018-08-31T06:48:04.692Z,97625.95
2018-08-31T06:50:33.255Z,97627.42
2018-08-31T06:53:01.839Z,97627.00
2018-08-31T06:55:30.395Z,97630.09
2018-08-31T06:57:58.971Z,97628.63
2018-08-31T07:00:27.648Z,97625.69
2018-08-31T07:02:56.185Z,97626.41
2018-08-31T07:05:24.760Z,97625.95
2018-08-31T07:07:53.555Z,97623.49
2018-08-31T07:10:22.123Z,97622.41
2018-08-31T07:12:50.700Z,97624.03
2018-08-31T07:15:19.695Z,97621.88
2018-08-31T07:17:48.275Z,97623.98
2018-08-31T07:20:16.864Z,97622.02
2018-08-31T07:22:45.813Z,97629.67
2018-08-31T07:25:14.484Z,97633.22
2018-08-31T07:27:43.078Z,97631.75
2018-08-31T07:30:12.063Z,97636.34
2018-08-31T07:32:40.633Z,97640.38
2018-08-31T07:35:09.224Z,97636.61
2018-08-31T07:37:37.820Z,97629.10
2018-08-31T07:40:06.819Z,97630.31
2018-08-31T07:42:35.404Z,97632.61
2018-08-31T07:45:04.232Z,97637.42
2018-08-31T07:47:32.796Z,97634.75
2018-08-31T07:50:01.359Z,97631.30
2018-08-31T07:52:30.024Z,97638.16
2018-08-31T07:54:58.657Z,97634.31
2018-08-31T07:57:27.227Z,97636.42
2018-08-31T07:59:55.807Z,97636.05
2018-08-31T08:02:24.359Z,97642.20
2018-08-31T08:04:52.920Z,97640.16
2018-08-31T08:07:21.673Z,97646.39
2018-08-31T08:09:50.195Z,97643.38
2018-08-31T08:12:18.755Z,97640.77
2018-08-31T08:14:47.831Z,97645.11
2018-08-31T08:17:16.303Z,97646.66
2018-08-31T08:19:44.925Z,97649.75
2018-08-31T08:22:14.088Z,97650.58
2018-08-31T08:24:42.668Z,97645.78
2018-08-31T08:27:11.254Z,97647.30
2018-08-31T08:29:39.855Z,97641.82
2018-08-31T08:32:08.460Z,97640.16
2018-08-31T08:34:37.036Z,97638.70
2018-08-31T08:37:05.831Z,97636.20
2018-08-31T08:39:34.459Z,97642.80
2018-08-31T08:42:03.111Z,97644.50
2018-08-31T08:44:31.862Z,97646.41
2018-08-31T08:47:00.515Z,97648.79
2018-08-31T08:49:29.100Z,97648.36
2018-08-31T08:51:57.713Z,97645.89
2018-08-31T08:54:26.283Z,97644.88
2018-08-31T08:56:55.156Z,97649.06
2018-08-31T08:59:24.173Z,97653.48
2018-08-31T09:01:52.746Z,97654.57
2018-08-31T09:04:21.309Z,97658.86
2018-08-31T09:06:49.907Z,97654.44
2018-08-31T09:09:18.475Z,97645.39
2018-08-31T09:11:47.053Z,97650.80
2018-08-31T09:14:15.640Z,97652.63
2018-08-31T09:16:44.203Z,97656.65
2018-08-31T09:19:12.775Z,97659.91
2018-08-31T09:21:41.488Z,97659.52
2018-08-31T09:24:10.079Z,97662.61
2018-08-31T09:26:38.648Z,97658.12
2018-08-31T09:29:07.320Z,97660.11
2018-08-31T09:31:35.904Z,97660.42
2018-08-31T09:34:04.468Z,97668.72
2018-08-31T09:36:33.052Z,97661.63
2018-08-31T09:39:01.596Z,97657.66
2018-08-31T09:41:30.211Z,97651.47
2018-08-31T09:43:59.177Z,97648.25
2018-08-31T09:46:27.675Z,97653.41
2018-08-31T09:48:56.256Z,97652.58
2018-08-31T09:51:24.932Z,97655.81
2018-08-31T09:53:53.529Z,97657.18
2018-08-31T09:56:22.094Z,97660.95
2018-08-31T09:58:50.824Z,97653.64
2018-08-31T10:01:24.607Z,97652.95
2018-08-31T10:03:53.318Z,97663.46
2018-08-31T10:06:21.860Z,97663.72
2018-08-31T10:08:50.415Z,97662.66
2018-08-31T10:11:19.359Z,97661.83
2018-08-31T10:13:47.912Z,97665.48
2018-08-31T10:16:16.542Z,97657.78
2018-08-31T10:18:45.169Z,97656.72
2018-08-31T10:21:13.715Z,97660.32
2018-08-31T10:23:42.287Z,97659.46
2018-08-31T10:26:11.195Z,97659.34
2018-08-31T10:28:40.035Z,97660.17
2018-08-31T10:31:08.599Z,97665.26
2018-08-31T10:33:37.544Z,97667.11
2018-08-31T10:36:06.639Z,97666.25
2018-08-31T10:38:35.180Z,97664.62
2018-08-31T10:41:04.112Z,97656.77
2018-08-31T10:43:32.697Z,97659.91
2018-08-31T10:46:01.255Z,97656.62
2018-08-31T10:48:29.851Z,97655.23
2018-08-31T10:50:58.408Z,97656.06
2018-08-31T10:53:26.967Z,97652.48
2018-08-31T10:55:55.572Z,97650.34
2018-08-31T10:58:24.127Z,97655.20
2018-08-31T11:00:52.755Z,97657.39
2018-08-31T11:03:21.563Z,97665.86
2018-08-31T11:05:50.112Z,97660.39
2018-08-31T11:08:18.727Z,97672.48
2018-08-31T11:10:47.411Z,97667.66
2018-08-31T11:13:15.960Z,97670.91
2018-08-31T11:15:44.579Z,97666.71
2018-08-31T11:18:13.190Z,97674.41
2018-08-31T11:20:41.767Z,97665.73
2018-08-31T11:23:10.355Z,97666.37
2018-08-31T11:25:38.984Z,97665.27
2018-08-31T11:28:07.603Z,97668.55
2018-08-31T11:30:36.181Z,97673.49
2018-08-31T11:33:05.038Z,97674.23
2018-08-31T11:35:33.615Z,97676.73
2018-08-31T11:38:02.191Z,97676.43
2018-08-31T11:40:30.912Z,97680.76
2018-08-31T11:42:59.512Z,97678.73
2018-08-31T11:45:28.114Z,97675.53
2018-08-31T11:47:56.723Z,97675.16
2018-08-31T11:50:25.295Z,97677.83
2018-08-31T11:52:53.855Z,97675.91
2018-08-31T11:55:22.865Z,97674.88
2018-08-31T11:57:51.365Z,97677.34
2018-08-31T12:00:20.043Z,97678.89
2018-08-31T12:02:48.636Z,97676.97
2018-08-31T12:05:17.200Z,97679.98
2018-08-31T12:07:45.771Z,97676.44
2018-08-31T12:10:14.468Z,97677.34
2018-08-31T12:12:43.036Z,97673.42
2018-08-31T12:15:11.605Z,97678.28
2018-08-31T12:17:40.287Z,97680.47
2018-08-31T12:20:09.296Z,97677.72
2018-08-31T12:22:37.960Z,97676.73
2018-08-31T12:25:08.938Z,97680.02
2018-08-31T12:27:38.799Z,97677.83
2018-08-31T12:30:08.136Z,97671.60
2018-08-31T12:32:37.276Z,97680.28
2018-08-31T12:35:06.349Z,97673.69
2018-08-31T12:37:35.503Z,97677.52
2018-08-31T12:40:04.604Z,97685.41
2018-08-31T12:42:33.363Z,97681.39
2018-08-31T12:45:02.351Z,97685.59
2018-08-31T12:47:30.926Z,97683.96
2018-08-31T12:50:00.379Z,97688.33
2018-08-31T12:52:29.143Z,97683.13
2018-08-31T12:54:57.746Z,97683.33
2018-08-31T12:57:26.423Z,97684.13
2018-08-31T12:59:59.635Z,97680.84
2018-08-31T13:02:29.575Z,97685.22
2018-08-31T13:04:58.140Z,97677.17
2018-08-31T13:07:27.175Z,97677.81
2018-08-31T13:12:34.100Z,97676.16
2018-08-31T13:15:02.971Z,97680.84
2018-08-31T13:17:31.663Z,97689.81
2018-08-31T13:20:00.506Z,97678.01
2018-08-31T13:22:29.411Z,97683.11
2018-08-31T13:24:58.041Z,97684.42
2018-08-31T13:27:26.671Z,97669.41
2018-08-31T13:29:55.312Z,97675.27
2018-08-31T13:32:23.931Z,97675.34
2018-08-31T13:34:52.978Z,97677.08
2018-08-31T13:37:21.667Z,97675.95
2018-08-31T13:39:50.242Z,97677.05
2018-08-31T13:42:19.227Z,97668.98
2018-08-31T13:44:48.180Z,97668.30
2018-08-31T13:47:19.993Z,97674.53
2018-08-31T13:49:49.088Z,97669.05
2018-08-31T13:52:17.672Z,97670.41
2018-08-31T13:54:46.651Z,97671.95
2018-08-31T13:57:15.241Z,97669.69
2018-08-31T13:59:44.164Z,97667.91
2018-08-31T14:02:12.895Z,97667.73
2018-08-31T14:04:41.472Z,97669.39
2018-08-31T14:07:10.108Z,97665.09
2018-08-31T14:09:38.915Z,97662.90
2018-08-31T14:12:07.600Z,97660.22
2018-08-31T14:14:36.233Z,97667.84
2018-08-31T14:17:05.240Z,97673.05
2018-08-31T14:19:33.955Z,97673.24
2018-08-31T14:22:02.520Z,97669.77
2018-08-31T14:24:31.208Z,97668.49
2018-08-31T14:26:59.777Z,97669.47
2018-08-31T14:29:28.424Z,97676.17
2018-08-31T14:31:57.069Z,97680.44
2018-08-31T14:34:25.623Z,97670.62
2018-08-31T14:36:54.195Z,97684.47
2018-08-31T14:39:22.793Z,97676.78
2018-08-31T14:41:51.348Z,97674.92
2018-08-31T14:44:20.601Z,97676.02
2018-08-31T14:46:49.302Z,97676.00
2018-08-31T14:49:17.868Z,97680.32
2018-08-31T14:51:46.460Z,97677.45
2018-08-31T14:54:15.059Z,97681.41
2018-08-31T14:56:43.631Z,97672.03
2018-08-31T14:59:12.290Z,97674.27
2018-08-31T15:01:41.856Z,97672.96
2018-08-31T15:04:10.432Z,97673.03
2018-08-31T15:06:38.996Z,97664.41
2018-08-31T15:09:09.564Z,97672.57
2018-08-31T15:11:38.127Z,97669.68
2018-08-31T15:14:06.695Z,97672.51
2018-08-31T15:16:35.407Z,97674.30
2018-08-31T15:19:03.984Z,97671.84
2018-08-31T15:21:32.543Z,97668.70
2018-08-31T15:24:01.260Z,97671.64
2018-08-31T15:26:29.813Z,97673.19
2018-08-31T15:28:58.361Z,97664.67
2018-08-31T15:31:27.393Z,97660.34
2018-08-31T15:33:55.843Z,97662.36
2018-08-31T15:36:24.400Z,97659.94
2018-08-31T15:38:53.076Z,97660.50
2018-08-31T15:41:21.647Z,97658.64
2018-08-31T15:43:50.210Z,97657.73
2018-08-31T15:46:18.896Z,97660.48
2018-08-31T15:48:47.460Z,97656.31
2018-08-31T15:51:16.020Z,97661.65
2018-08-31T15:53:45.283Z,97665.50
2018-08-31T15:56:13.873Z,97665.94
2018-08-31T15:58:42.447Z,97666.59
2018-08-31T16:01:11.035Z,97672.48
2018-08-31T16:03:39.601Z,97677.45
2018-08-31T16:06:08.478Z,97672.77
2018-08-31T16:08:37.148Z,97674.54
2018-08-31T16:11:05.748Z,97665.45
2018-08-31T16:13:34.299Z,97668.11
2018-08-31T16:16:02.974Z,97673.64
2018-08-31T16:18:31.844Z,97680.02
2018-08-31T16:21:01.800Z,97680.39
2018-08-31T16:23:31.713Z,97677.36
2018-08-31T16:26:00.298Z,97680.45
2018-08-31T16:28:28.863Z,97675.58
2018-08-31T16:30:59.607Z,97675.69
2018-08-31T16:33:28.210Z,97671.34
2018-08-31T16:35:56.791Z,97677.31
2018-08-31T16:38:25.467Z,97677.31
2018-08-31T16:40:54.071Z,97676.86
2018-08-31T16:43:23.039Z,97679.55
2018-08-31T16:45:51.720Z,97680.53
2018-08-31T16:48:20.312Z,97675.91
2018-08-31T16:50:48.875Z,97680.45
2018-08-31T16:53:17.695Z,97678.27
2018-08-31T16:55:46.273Z,97680.32
2018-08-31T16:58:14.839Z,97681.41
2018-08-31T17:00:43.545Z,97680.34
2018-08-31T17:03:12.207Z,97677.23
2018-08-31T17:05:40.760Z,97683.28
2018-08-31T17:08:09.640Z,97676.92
2018-08-31T17:10:38.675Z,97675.81
2018-08-31T17:13:07.251Z,97682.12
2018-08-31T17:15:36.171Z,97688.00
2018-08-31T17:18:04.794Z,97689.30
2018-08-31T17:20:33.344Z,97689.67
2018-08-31T17:23:02.264Z,97689.95
2018-08-31T17:25:30.987Z,97689.94
2018-08-31T17:28:05.011Z,97696.64
2018-08-31T17:30:33.607Z,97696.77
2018-08-31T17:33:07.660Z,97703.12
2018-08-31T17:35:41.425Z,97703.95
2018-08-31T17:38:10.992Z,97707.61
2018-08-31T17:40:39.558Z,97705.49
2018-08-31T17:43:08.159Z,97711.00
2018-08-31T17:45:37.027Z,97706.89
2018-08-31T17:48:05.708Z,97709.27
2018-08-31T17:50:34.291Z,97710.91
2018-08-31T17:53:03.279Z,97716.43
2018-08-31T17:55:31.830Z,97718.62
2018-08-31T17:58:00.391Z,97720.47
2018-08-31T18:00:29.052Z,97719.95
2018-08-31T18:02:57.636Z,97720.97
2018-08-31T18:05:26.227Z,97723.80
2018-08-31T18:07:55.208Z,97727.08
2018-08-31T18:10:23.939Z,97723.08
2018-08-31T18:12:52.511Z,97721.69
2018-08-31T18:15:21.814Z,97722.33
2018-08-31T18:17:50.340Z,97727.76
2018-08-31T18:20:18.899Z,97735.19
2018-08-31T18:22:48.567Z,97739.39
2018-08-31T18:25:17.158Z,97746.36
2018-08-31T18:27:45.710Z,97743.61
2018-08-31T18:30:14.381Z,97748.74
2018-08-31T18:32:42.935Z,97754.33
2018-08-31T18:35:11.856Z,97755.53
2018-08-31T18:37:46.375Z,97754.36
2018-08-31T18:40:14.939Z,97760.28
2018-08-31T18:42:43.511Z,97756.27
2018-08-31T18:45:12.107Z,97763.42
2018-08-31T18:47:40.722Z,97761.21
2018-08-31T18:50:09.369Z,97760.87
2018-08-31T18:52:38.199Z,97764.61
2018-08-31T18:55:06.739Z,97759.69
2018-08-31T18:57:35.311Z,97766.44
2018-08-31T19:00:03.952Z,97765.83
2018-08-31T19:02:32.516Z,97766.54
2018-08-31T19:05:01.093Z,97767.11
2018-08-31T19:07:29.792Z,97772.78
2018-08-31T19:10:03.744Z,97771.30
2018-08-31T19:12:32.644Z,97776.45
2018-08-31T19:15:01.195Z,97773.97
2018-08-31T19:17:29.832Z,97772.23
2018-08-31T19:19:58.935Z,97780.73
2018-08-31T19:22:27.507Z,97777.37
2018-08-31T19:24:56.113Z,97777.17
2018-08-31T19:27:25.060Z,97777.61
2018-08-31T19:29:53.635Z,97783.58
2018-08-31T19:32:22.389Z,97780.64
2018-08-31T19:34:51.327Z,97786.42
2018-08-31T19:37:19.943Z,97793.10
2018-08-31T19:39:48.508Z,97793.10
2018-08-31T19:42:17.192Z,97789.98
2018-08-31T19:44:45.779Z,97792.36
2018-08-31T19:47:14.357Z,97790.72
2018-08-31T19:49:43.037Z,97797.50
2018-08-31T19:52:11.607Z,97794.94
2018-08-31T19:54:40.196Z,97796.66
2018-08-31T19:57:09.095Z,97801.08
2018-08-31T19:59:37.655Z,97801.70
2018-08-31T20:02:07.013Z,97799.23
2018-08-31T20:04:35.756Z,97801.70
2018-08-31T20:07:04.318Z,97807.09
2018-08-31T20:09:32.979Z,97807.31
2018-08-31T20:12:01.760Z,97809.49
2018-08-31T20:14:30.438Z,97806.91
2018-08-31T20:16:59.020Z,97809.12
2018-08-31T20:19:27.962Z,97813.05
2018-08-31T20:21:56.841Z,97805.27
2018-08-31T20:24:25.642Z,97807.19
2018-08-31T20:26:54.355Z,97806.58
2018-08-31T20:29:22.972Z,97809.10
2018-08-31T20:31:51.687Z,97810.62
2018-08-31T20:34:20.292Z,97807.41
2018-08-31T20:36:48.851Z,97808.05
2018-08-31T20:39:17.440Z,97810.50
2018-08-31T20:41:46.168Z,97805.20
2018-08-31T20:44:14.799Z,97810.60
2018-08-31T20:46:43.358Z,97813.20
2018-08-31T20:49:11.948Z,97815.55
2018-08-31T20:51:40.571Z,97814.27
2018-08-31T20:54:09.141Z,97812.50
2018-08-31T20:56:37.838Z,97818.91
2018-08-31T20:59:06.554Z,97814.68
2018-08-31T21:01:35.467Z,97815.06
2018-08-31T21:04:04.140Z,97818.95
2018-08-31T21:06:32.935Z,97819.02
2018-08-31T21:09:01.695Z,97827.51
2018-08-31T21:11:30.720Z,97829.62
2018-08-31T21:13:59.283Z,97826.30
2018-08-31T21:16:27.855Z,97829.20
2018-08-31T21:18:56.641Z,97840.28
2018-08-31T21:21:25.215Z,97831.97
2018-08-31T21:23:53.800Z,97832.70
2018-08-31T21:26:22.655Z,97837.16
2018-08-31T21:28:51.749Z,97845.95
2018-08-31T21:31:20.348Z,97838.94
2018-08-31T21:33:50.176Z,97842.05
2018-08-31T21:36:18.739Z,97836.20
2018-08-31T21:38:47.347Z,97837.23
2018-08-31T21:41:15.943Z,97839.59
2018-08-31T21:43:44.611Z,97831.01
2018-08-31T21:46:14.609Z,97836.13
2018-08-31T21:48:43.289Z,97840.11
2018-08-31T21:51:12.008Z,97834.43
2018-08-31T21:53:40.669Z,97837.68
2018-08-31T21:56:09.339Z,97841.66
2018-08-31T21:58:37.907Z,97840.14
2018-08-31T22:01:11.787Z,97847.45
2018-08-31T22:03:40.667Z,97843.40
2018-08-31T22:06:09.416Z,97839.98
2018-08-31T22:08:40.097Z,97839.88
2018-08-31T22:11:08.827Z,97838.83
2018-08-31T22:13:37.759Z,97845.52
2018-08-31T22:16:06.851Z,97840.42
2018-08-31T22:18:35.483Z,97836.30
2018-08-31T22:21:04.539Z,97838.77
2018-08-31T22:23:33.207Z,97841.50
2018-08-31T22:26:01.852Z,97836.48
2018-08-31T22:28:30.439Z,97835.26
2018-08-31T22:30:59.083Z,97832.38
2018-08-31T22:33:27.700Z,97831.71
2018-08-31T22:35:56.275Z,97828.77
2018-08-31T22:38:24.872Z,97833.72
2018-08-31T22:40:53.599Z,97836.56
2018-08-31T22:43:53.228Z,97836.52
2018-08-31T22:46:22.879Z,97839.52
2018-08-31T22:48:52.184Z,97840.90
2018-08-31T22:51:22.251Z,97842.80
2018-08-31T22:53:51.192Z,97842.36
2018-08-31T22:56:19.783Z,97838.45
2018-08-31T22:58:48.447Z,97839.91
2018-08-31T23:01:17.027Z,97828.20
2018-08-31T23:03:45.622Z,97827.89
2018-08-31T23:06:14.299Z,97821.65
2018-08-31T23:08:42.924Z,97820.53
2018-08-31T23:11:12.567Z,97817.08
2018-08-31T23:13:43.043Z,97816.58
2018-08-31T23:16:11.632Z,97829.66
2018-08-31T23:18:40.644Z,97835.89
2018-08-31T23:21:10.171Z,97837.51
2018-08-31T23:23:43.951Z,97836.39
2018-08-31T23:26:12.594Z,97830.94
2018-08-31T23:28:41.150Z,97830.84
2018-08-31T23:31:09.732Z,97830.94
2018-08-31T23:33:38.317Z,97827.73
2018-08-31T23:36:06.886Z,97831.16
2018-08-31T23:38:35.492Z,97835.28
2018-08-31T23:41:04.235Z,97833.06
2018-08-31T23:43:32.830Z,97832.16
2018-08-31T23:46:01.424Z,97829.48
2018-08-31T23:48:30.040Z,97827.66
2018-08-31T23:50:58.623Z,97823.27
2018-08-31T23:53:27.236Z,97824.31
2018-08-31T23:55:55.840Z,97826.88
2018-08-31T23:58:24.411Z,97828.88
